sensor_id;sensor_type;location;lat;lon;timestamp;pressure;altitude;pressure_sealevel;temperature;humidity
15405;BME280;7801;48.124;11.590;2022-10-17T00:00:47;96057.66;;;14.89;91.97
15405;BME280;7801;48.124;11.590;2022-10-17T00:03:17;96054.41;;;14.78;92.38
15405;BME280;7801;48.124;11.590;2022-10-17T00:05:44;96048.19;;;14.83;92.10
15405;BME280;7801;48.124;11.590;2022-10-17T00:08:13;96050.78;;;14.74;92.28
15405;BME280;7801;48.124;11.590;2022-10-17T00:10:40;96055.44;;;14.69;92.47
15405;BME280;7801;48.124;11.590;2022-10-17T00:13:09;96053.13;;;14.76;91.95
15405;BME280;7801;48.124;11.590;2022-10-17T00:15:35;96055.94;;;14.71;91.98
15405;BME280;7801;48.124;11.590;2022-10-17T00:18:01;96057.03;;;14.70;92.39
15405;BME280;7801;48.124;11.590;2022-10-17T00:20:28;96061.88;;;14.68;92.39
15405;BME280;7801;48.124;11.590;2022-10-17T00:22:56;96058.91;;;14.69;92.24
15405;BME280;7801;48.124;11.590;2022-10-17T00:25:23;96055.16;;;14.70;92.02
15405;BME280;7801;48.124;11.590;2022-10-17T00:27:50;96059.72;;;14.56;92.67
15405;BME280;7801;48.124;11.590;2022-10-17T00:30:17;96061.91;;;14.54;92.71
15405;BME280;7801;48.124;11.590;2022-10-17T00:32:43;96055.94;;;14.57;92.41
15405;BME280;7801;48.124;11.590;2022-10-17T00:35:10;96056.09;;;14.52;92.63
15405;BME280;7801;48.124;11.590;2022-10-17T00:37:37;96063.22;;;14.43;92.80
15405;BME280;7801;48.124;11.590;2022-10-17T00:40:04;96055.41;;;14.47;92.91
15405;BME280;7801;48.124;11.590;2022-10-17T00:42:34;96064.50;;;14.46;92.90
15405;BME280;7801;48.124;11.590;2022-10-17T00:45:28;96066.56;;;14.49;92.95
15405;BME280;7801;48.124;11.590;2022-10-17T00:48:06;96065.88;;;14.43;93.00
15405;BME280;7801;48.124;11.590;2022-10-17T00:50:35;96061.41;;;14.38;92.86
15405;BME280;7801;48.124;11.590;2022-10-17T00:53:04;96067.25;;;14.27;93.57
15405;BME280;7801;48.124;11.590;2022-10-17T00:55:36;96072.78;;;14.30;92.94
15405;BME280;7801;48.124;11.590;2022-10-17T00:58:09;96070.31;;;14.20;93.34
15405;BME280;7801;48.124;11.590;2022-10-17T01:00:35;96079.22;;;14.29;93.41
15405;BME280;7801;48.124;11.590;2022-10-17T01:03:03;96075.56;;;14.25;93.12
15405;BME280;7801;48.124;11.590;2022-10-17T01:05:29;96080.19;;;14.20;93.12
15405;BME280;7801;48.124;11.590;2022-10-17T01:07:55;96071.91;;;14.21;93.25
15405;BME280;7801;48.124;11.590;2022-10-17T01:10:21;96077.22;;;14.21;92.89
15405;BME280;7801;48.124;11.590;2022-10-17T01:21:55;96078.72;;;14.00;93.83
15405;BME280;7801;48.124;11.590;2022-10-17T01:24:46;96088.00;;;14.16;92.98
15405;BME280;7801;48.124;11.590;2022-10-17T01:36:37;96067.00;;;13.55;94.23
15405;BME280;7801;48.124;11.590;2022-10-17T01:41:46;96067.50;;;13.57;94.47
15405;BME280;7801;48.124;11.590;2022-10-17T01:44:51;96062.00;;;13.67;93.81
15405;BME280;7801;48.124;11.590;2022-10-17T01:47:23;96060.69;;;13.51;93.54
15405;BME280;7801;48.124;11.590;2022-10-17T01:49:51;96065.41;;;13.54;93.65
15405;BME280;7801;48.124;11.590;2022-10-17T01:52:37;96066.56;;;13.34;94.06
15405;BME280;7801;48.124;11.590;2022-10-17T01:55:22;96064.81;;;13.43;94.40
15405;BME280;7801;48.124;11.590;2022-10-17T01:57:52;96070.38;;;13.60;93.62
15405;BME280;7801;48.124;11.590;2022-10-17T02:00:25;96068.28;;;13.57;93.43
15405;BME280;7801;48.124;11.590;2022-10-17T02:03:02;96068.78;;;13.59;92.83
15405;BME280;7801;48.124;11.590;2022-10-17T02:05:36;96059.13;;;13.63;92.71
15405;BME280;7801;48.124;11.590;2022-10-17T02:08:05;96064.25;;;13.60;92.36
15405;BME280;7801;48.124;11.590;2022-10-17T02:11:34;96064.12;;;13.51;92.81
15405;BME280;7801;48.124;11.590;2022-10-17T02:16:50;96074.50;;;13.53;92.67
15405;BME280;7801;48.124;11.590;2022-10-17T02:27:41;96061.66;;;13.41;93.00
15405;BME280;7801;48.124;11.590;2022-10-17T02:33:16;96055.84;;;13.53;92.80
15405;BME280;7801;48.124;11.590;2022-10-17T02:35:51;96062.47;;;13.23;93.34
15405;BME280;7801;48.124;11.590;2022-10-17T02:38:23;96065.16;;;13.23;93.80
15405;BME280;7801;48.124;11.590;2022-10-17T02:40:52;96061.00;;;13.12;94.16
15405;BME280;7801;48.124;11.590;2022-10-17T02:43:19;96071.91;;;13.15;93.59
15405;BME280;7801;48.124;11.590;2022-10-17T02:45:47;96064.34;;;13.22;93.73
15405;BME280;7801;48.124;11.590;2022-10-17T02:48:27;96073.06;;;13.28;93.33
15405;BME280;7801;48.124;11.590;2022-10-17T02:51:14;96065.19;;;13.36;92.99
15405;BME280;7801;48.124;11.590;2022-10-17T02:56:24;96058.47;;;13.39;92.71
15405;BME280;7801;48.124;11.590;2022-10-17T02:58:55;96060.56;;;13.42;92.13
15405;BME280;7801;48.124;11.590;2022-10-17T03:01:23;96063.22;;;13.42;91.96
15405;BME280;7801;48.124;11.590;2022-10-17T03:03:50;96063.19;;;13.28;91.66
15405;BME280;7801;48.124;11.590;2022-10-17T03:06:15;96056.47;;;13.31;91.83
15405;BME280;7801;48.124;11.590;2022-10-17T03:08:42;96063.00;;;13.38;91.61
15405;BME280;7801;48.124;11.590;2022-10-17T03:11:08;96060.06;;;13.40;91.25
15405;BME280;7801;48.124;11.590;2022-10-17T03:13:37;96067.97;;;13.45;90.66
15405;BME280;7801;48.124;11.590;2022-10-17T03:16:02;96065.19;;;13.36;91.13
15405;BME280;7801;48.124;11.590;2022-10-17T03:18:30;96069.50;;;13.32;91.46
15405;BME280;7801;48.124;11.590;2022-10-17T03:20:56;96068.03;;;13.26;91.62
15405;BME280;7801;48.124;11.590;2022-10-17T03:23:23;96070.28;;;13.33;91.65
15405;BME280;7801;48.124;11.590;2022-10-17T03:25:50;96074.53;;;13.34;91.67
15405;BME280;7801;48.124;11.590;2022-10-17T03:28:16;96076.16;;;13.16;92.47
15405;BME280;7801;48.124;11.590;2022-10-17T03:30:43;96068.87;;;13.22;92.56
15405;BME280;7801;48.124;11.590;2022-10-17T03:33:10;96066.75;;;13.37;91.63
15405;BME280;7801;48.124;11.590;2022-10-17T03:35:38;96076.84;;;13.40;91.33
15405;BME280;7801;48.124;11.590;2022-10-17T03:38:04;96068.94;;;13.35;91.45
15405;BME280;7801;48.124;11.590;2022-10-17T03:40:32;96078.22;;;13.38;91.30
15405;BME280;7801;48.124;11.590;2022-10-17T03:42:59;96080.44;;;13.31;91.36
15405;BME280;7801;48.124;11.590;2022-10-17T03:45:25;96075.00;;;13.22;92.05
15405;BME280;7801;48.124;11.590;2022-10-17T03:47:51;96081.06;;;13.28;90.85
15405;BME280;7801;48.124;11.590;2022-10-17T03:50:16;96084.69;;;13.32;90.87
15405;BME280;7801;48.124;11.590;2022-10-17T03:52:48;96088.38;;;13.36;90.61
15405;BME280;7801;48.124;11.590;2022-10-17T03:55:15;96086.69;;;13.26;90.97
15405;BME280;7801;48.124;11.590;2022-10-17T03:57:41;96090.59;;;13.10;91.92
15405;BME280;7801;48.124;11.590;2022-10-17T04:00:09;96081.78;;;12.96;92.53
15405;BME280;7801;48.124;11.590;2022-10-17T04:02:35;96079.62;;;12.98;92.33
15405;BME280;7801;48.124;11.590;2022-10-17T04:05:00;96082.84;;;13.14;91.75
15405;BME280;7801;48.124;11.590;2022-10-17T04:07:28;96090.78;;;13.19;91.32
15405;BME280;7801;48.124;11.590;2022-10-17T04:09:54;96089.50;;;13.16;91.09
15405;BME280;7801;48.124;11.590;2022-10-17T04:12:21;96092.47;;;13.09;91.25
15405;BME280;7801;48.124;11.590;2022-10-17T04:14:50;96089.06;;;13.09;91.42
15405;BME280;7801;48.124;11.590;2022-10-17T04:17:15;96091.63;;;12.95;92.85
15405;BME280;7801;48.124;11.590;2022-10-17T04:19:41;96087.44;;;12.89;92.28
15405;BME280;7801;48.124;11.590;2022-10-17T04:22:07;96101.28;;;12.91;92.21
15405;BME280;7801;48.124;11.590;2022-10-17T04:24:32;96108.13;;;12.97;91.84
15405;BME280;7801;48.124;11.590;2022-10-17T04:26:58;96100.19;;;13.11;91.21
15405;BME280;7801;48.124;11.590;2022-10-17T04:29:24;96096.91;;;13.00;91.46
15405;BME280;7801;48.124;11.590;2022-10-17T04:31:52;96103.16;;;12.91;91.98
15405;BME280;7801;48.124;11.590;2022-10-17T04:34:17;96093.66;;;13.03;91.10
15405;BME280;7801;48.124;11.590;2022-10-17T04:36:43;96090.06;;;12.94;90.95
15405;BME280;7801;48.124;11.590;2022-10-17T04:39:09;96096.91;;;12.82;90.64
15405;BME280;7801;48.124;11.590;2022-10-17T04:41:37;96099.63;;;12.95;90.56
15405;BME280;7801;48.124;11.590;2022-10-17T04:44:03;96098.41;;;13.06;89.91
15405;BME280;7801;48.124;11.590;2022-10-17T04:46:32;96104.72;;;13.11;89.57
15405;BME280;7801;48.124;11.590;2022-10-17T04:48:57;96103.94;;;13.10;89.26
15405;BME280;7801;48.124;11.590;2022-10-17T04:51:22;96108.94;;;13.17;89.12
15405;BME280;7801;48.124;11.590;2022-10-17T04:53:50;96109.62;;;13.03;90.08
15405;BME280;7801;48.124;11.590;2022-10-17T04:56:20;96109.62;;;13.03;90.06
15405;BME280;7801;48.124;11.590;2022-10-17T04:58:57;96123.59;;;12.95;89.83
15405;BME280;7801;48.124;11.590;2022-10-17T05:01:23;96116.91;;;12.98;89.66
15405;BME280;7801;48.124;11.590;2022-10-17T05:03:49;96121.00;;;12.90;90.13
15405;BME280;7801;48.124;11.590;2022-10-17T05:06:21;96113.97;;;12.99;90.20
15405;BME280;7801;48.124;11.590;2022-10-17T05:08:48;96117.12;;;13.01;90.19
15405;BME280;7801;48.124;11.590;2022-10-17T05:11:24;96124.38;;;12.96;90.37
15405;BME280;7801;48.124;11.590;2022-10-17T05:13:54;96126.84;;;12.92;90.45
15405;BME280;7801;48.124;11.590;2022-10-17T05:16:22;96133.22;;;12.91;90.36
15405;BME280;7801;48.124;11.590;2022-10-17T05:18:49;96129.50;;;12.92;90.67
15405;BME280;7801;48.124;11.590;2022-10-17T05:21:16;96129.94;;;12.99;90.70
15405;BME280;7801;48.124;11.590;2022-10-17T05:23:42;96128.84;;;13.00;89.87
15405;BME280;7801;48.124;11.590;2022-10-17T05:26:08;96133.62;;;13.03;89.85
15405;BME280;7801;48.124;11.590;2022-10-17T05:28:33;96137.88;;;13.04;89.74
15405;BME280;7801;48.124;11.590;2022-10-17T05:31:03;96130.66;;;13.05;89.39
15405;BME280;7801;48.124;11.590;2022-10-17T05:33:30;96136.84;;;13.00;89.73
15405;BME280;7801;48.124;11.590;2022-10-17T05:35:56;96141.16;;;12.96;89.76
15405;BME280;7801;48.124;11.590;2022-10-17T05:38:24;96147.28;;;12.97;89.58
15405;BME280;7801;48.124;11.590;2022-10-17T05:40:49;96150.44;;;12.99;89.28
15405;BME280;7801;48.124;11.590;2022-10-17T05:43:16;96150.72;;;12.79;89.80
15405;BME280;7801;48.124;11.590;2022-10-17T05:45:43;96146.84;;;12.90;90.18
15405;BME280;7801;48.124;11.590;2022-10-17T05:48:08;96159.97;;;12.86;89.62
15405;BME280;7801;48.124;11.590;2022-10-17T05:50:34;96160.25;;;12.85;89.66
15405;BME280;7801;48.124;11.590;2022-10-17T05:53:01;96157.13;;;12.96;89.25
15405;BME280;7801;48.124;11.590;2022-10-17T05:55:27;96159.75;;;13.01;88.81
15405;BME280;7801;48.124;11.590;2022-10-17T05:57:54;96160.09;;;12.95;89.17
15405;BME280;7801;48.124;11.590;2022-10-17T06:00:21;96169.38;;;12.97;88.70
15405;BME280;7801;48.124;11.590;2022-10-17T06:02:49;96172.84;;;12.98;88.92
15405;BME280;7801;48.124;11.590;2022-10-17T06:05:21;96184.28;;;12.98;89.19
15405;BME280;7801;48.124;11.590;2022-10-17T06:07:46;96184.56;;;12.97;89.77
15405;BME280;7801;48.124;11.590;2022-10-17T06:10:14;96180.53;;;12.99;89.59
15405;BME280;7801;48.124;11.590;2022-10-17T06:12:43;96185.41;;;12.92;89.57
15405;BME280;7801;48.124;11.590;2022-10-17T06:15:11;96191.78;;;12.96;89.22
15405;BME280;7801;48.124;11.590;2022-10-17T06:17:37;96190.97;;;12.96;89.62
15405;BME280;7801;48.124;11.590;2022-10-17T06:20:04;96193.50;;;12.87;89.23
15405;BME280;7801;48.124;11.590;2022-10-17T06:22:30;96188.09;;;12.92;89.86
15405;BME280;7801;48.124;11.590;2022-10-17T06:24:56;96191.72;;;13.01;89.51
15405;BME280;7801;48.124;11.590;2022-10-17T06:27:21;96192.44;;;13.07;89.06
15405;BME280;7801;48.124;11.590;2022-10-17T06:29:47;96200.22;;;13.03;89.18
15405;BME280;7801;48.124;11.590;2022-10-17T06:32:13;96195.69;;;13.04;89.45
15405;BME280;7801;48.124;11.590;2022-10-17T06:34:39;96198.28;;;13.09;88.86
15405;BME280;7801;48.124;11.590;2022-10-17T06:37:05;96195.91;;;13.07;88.84
15405;BME280;7801;48.124;11.590;2022-10-17T06:39:34;96193.53;;;13.06;88.86
15405;BME280;7801;48.124;11.590;2022-10-17T06:42:03;96196.88;;;13.12;88.90
15405;BME280;7801;48.124;11.590;2022-10-17T06:44:34;96196.56;;;13.18;88.53
15405;BME280;7801;48.124;11.590;2022-10-17T06:47:00;96192.03;;;13.19;88.72
15405;BME280;7801;48.124;11.590;2022-10-17T06:49:26;96203.50;;;13.14;89.09
15405;BME280;7801;48.124;11.590;2022-10-17T06:51:59;96209.88;;;13.18;88.85
15405;BME280;7801;48.124;11.590;2022-10-17T06:54:25;96204.97;;;13.06;89.17
15405;BME280;7801;48.124;11.590;2022-10-17T06:56:53;96212.28;;;13.15;89.20
15405;BME280;7801;48.124;11.590;2022-10-17T06:59:20;96213.69;;;14.01;100.00
15405;BME280;7801;48.124;11.590;2022-10-17T07:01:45;96210.22;;;15.15;100.00
15405;BME280;7801;48.124;11.590;2022-10-17T07:04:11;96210.38;;;15.32;95.51
15405;BME280;7801;48.124;11.590;2022-10-17T07:06:37;96214.03;;;14.73;88.05
15405;BME280;7801;48.124;11.590;2022-10-17T07:09:03;96215.88;;;14.45;84.89
15405;BME280;7801;48.124;11.590;2022-10-17T07:11:31;96217.75;;;14.58;87.63
15405;BME280;7801;48.124;11.590;2022-10-17T07:13:57;96220.75;;;14.84;89.58
15405;BME280;7801;48.124;11.590;2022-10-17T07:16:23;96218.03;;;14.98;87.02
15405;BME280;7801;48.124;11.590;2022-10-17T07:18:49;96226.66;;;15.08;86.20
15405;BME280;7801;48.124;11.590;2022-10-17T07:21:17;96220.28;;;15.18;86.03
15405;BME280;7801;48.124;11.590;2022-10-17T07:23:43;96224.62;;;15.28;83.96
15405;BME280;7801;48.124;11.590;2022-10-17T07:26:12;96223.38;;;15.61;88.13
15405;BME280;7801;48.124;11.590;2022-10-17T07:28:41;96239.84;;;15.41;82.45
15405;BME280;7801;48.124;11.590;2022-10-17T07:31:09;96235.34;;;15.77;87.83
15405;BME280;7801;48.124;11.590;2022-10-17T07:33:36;96238.91;;;15.73;82.59
15405;BME280;7801;48.124;11.590;2022-10-17T07:36:04;96246.16;;;15.95;86.66
15405;BME280;7801;48.124;11.590;2022-10-17T07:38:30;96247.44;;;16.20;86.40
15405;BME280;7801;48.124;11.590;2022-10-17T07:41:01;96244.69;;;15.89;81.71
15405;BME280;7801;48.124;11.590;2022-10-17T07:43:29;96257.25;;;15.66;81.04
15405;BME280;7801;48.124;11.590;2022-10-17T07:45:55;96257.97;;;15.44;80.96
15405;BME280;7801;48.124;11.590;2022-10-17T07:48:23;96265.53;;;15.28;81.67
15405;BME280;7801;48.124;11.590;2022-10-17T07:50:50;96265.25;;;15.16;82.15
15405;BME280;7801;48.124;11.590;2022-10-17T07:53:16;96258.53;;;15.05;82.53
15405;BME280;7801;48.124;11.590;2022-10-17T07:55:43;96270.09;;;15.00;82.94
15405;BME280;7801;48.124;11.590;2022-10-17T07:58:11;96266.34;;;15.01;83.50
15405;BME280;7801;48.124;11.590;2022-10-17T08:00:39;96265.25;;;15.02;82.12
15405;BME280;7801;48.124;11.590;2022-10-17T08:03:05;96264.06;;;15.08;82.15
15405;BME280;7801;48.124;11.590;2022-10-17T08:05:31;96263.09;;;15.04;83.31
15405;BME280;7801;48.124;11.590;2022-10-17T08:08:05;96270.31;;;15.04;84.03
15405;BME280;7801;48.124;11.590;2022-10-17T08:10:30;96270.12;;;15.14;82.70
15405;BME280;7801;48.124;11.590;2022-10-17T08:12:57;96266.31;;;15.29;82.15
15405;BME280;7801;48.124;11.590;2022-10-17T08:15:24;96266.31;;;15.29;82.14
15405;BME280;7801;48.124;11.590;2022-10-17T08:17:51;96265.25;;;15.30;82.60
15405;BME280;7801;48.124;11.590;2022-10-17T08:20:19;96262.81;;;15.42;81.34
15405;BME280;7801;48.124;11.590;2022-10-17T08:22:55;96268.75;;;15.53;81.18
15405;BME280;7801;48.124;11.590;2022-10-17T08:25:21;96266.81;;;15.58;81.53
15405;BME280;7801;48.124;11.590;2022-10-17T08:27:48;96265.28;;;15.66;81.20
15405;BME280;7801;48.124;11.590;2022-10-17T08:30:14;96260.31;;;15.73;81.26
15405;BME280;7801;48.124;11.590;2022-10-17T08:32:40;96264.13;;;15.80;81.04
15405;BME280;7801;48.124;11.590;2022-10-17T08:35:09;96270.97;;;15.87;79.71
15405;BME280;7801;48.124;11.590;2022-10-17T08:37:36;96267.69;;;15.90;80.03
15405;BME280;7801;48.124;11.590;2022-10-17T08:40:04;96264.28;;;15.98;79.88
15405;BME280;7801;48.124;11.590;2022-10-17T08:48:07;96264.13;;;16.25;78.80
15405;BME280;7801;48.124;11.590;2022-10-17T08:50:37;96259.75;;;16.29;78.95
15405;BME280;7801;48.124;11.590;2022-10-17T08:53:24;96266.69;;;16.30;79.95
15405;BME280;7801;48.124;11.590;2022-10-17T08:55:53;96270.22;;;16.39;79.37
15405;BME280;7801;48.124;11.590;2022-10-17T08:58:20;96269.94;;;16.41;78.70
15405;BME280;7801;48.124;11.590;2022-10-17T09:06:36;96275.84;;;16.60;77.62
15405;BME280;7801;48.124;11.590;2022-10-17T09:14:57;96264.44;;;16.77;76.26
15405;BME280;7801;48.124;11.590;2022-10-17T09:17:54;96266.34;;;16.85;76.50
15405;BME280;7801;48.124;11.590;2022-10-17T09:20:24;96268.78;;;16.95;77.43
15405;BME280;7801;48.124;11.590;2022-10-17T09:23:12;96263.78;;;17.11;74.41
15405;BME280;7801;48.124;11.590;2022-10-17T09:25:54;96270.59;;;17.17;74.16
15405;BME280;7801;48.124;11.590;2022-10-17T09:28:33;96272.03;;;17.23;73.97
15405;BME280;7801;48.124;11.590;2022-10-17T09:31:19;96271.38;;;17.26;73.02
15405;BME280;7801;48.124;11.590;2022-10-17T09:33:50;96274.44;;;17.42;71.99
15405;BME280;7801;48.124;11.590;2022-10-17T09:36:19;96270.94;;;17.50;71.12
15405;BME280;7801;48.124;11.590;2022-10-17T09:38:52;96274.13;;;17.61;72.06
15405;BME280;7801;48.124;11.590;2022-10-17T09:42:00;96274.50;;;17.76;71.48
15405;BME280;7801;48.124;11.590;2022-10-17T09:44:38;96278.59;;;17.74;70.17
15405;BME280;7801;48.124;11.590;2022-10-17T09:49:46;96284.59;;;17.79;72.61
15405;BME280;7801;48.124;11.590;2022-10-17T09:52:34;96284.44;;;17.84;73.45
15405;BME280;7801;48.124;11.590;2022-10-17T09:55:25;96278.28;;;17.93;72.70
15405;BME280;7801;48.124;11.590;2022-10-17T09:57:59;96275.13;;;17.91;71.72
15405;BME280;7801;48.124;11.590;2022-10-17T10:00:31;96278.75;;;17.95;74.48
15405;BME280;7801;48.124;11.590;2022-10-17T10:05:33;96277.78;;;18.16;71.06
15405;BME280;7801;48.124;11.590;2022-10-17T10:08:15;96283.94;;;18.17;72.33
15405;BME280;7801;48.124;11.590;2022-10-17T10:10:45;96287.09;;;18.36;70.29
15405;BME280;7801;48.124;11.590;2022-10-17T10:15:43;96289.13;;;18.39;70.42
15405;BME280;7801;48.124;11.590;2022-10-17T10:18:31;96284.41;;;18.45;69.54
15405;BME280;7801;48.124;11.590;2022-10-17T10:21:18;96298.78;;;18.40;70.11
15405;BME280;7801;48.124;11.590;2022-10-17T10:24:14;96303.69;;;18.47;69.23
15405;BME280;7801;48.124;11.590;2022-10-17T10:27:02;96293.88;;;18.42;69.91
15405;BME280;7801;48.124;11.590;2022-10-17T10:29:31;96297.31;;;18.51;67.82
15405;BME280;7801;48.124;11.590;2022-10-17T10:34:52;96286.91;;;18.67;67.48
15405;BME280;7801;48.124;11.590;2022-10-17T10:37:31;96285.78;;;18.68;69.40
15405;BME280;7801;48.124;11.590;2022-10-17T10:40:00;96287.03;;;18.71;69.12
15405;BME280;7801;48.124;11.590;2022-10-17T10:42:38;96286.69;;;18.81;65.52
15405;BME280;7801;48.124;11.590;2022-10-17T10:45:19;96290.16;;;18.90;66.21
15405;BME280;7801;48.124;11.590;2022-10-17T10:47:57;96285.19;;;19.01;66.58
15405;BME280;7801;48.124;11.590;2022-10-17T10:50:35;96285.47;;;19.08;65.66
15405;BME280;7801;48.124;11.590;2022-10-17T10:56:13;96283.47;;;18.96;66.04
15405;BME280;7801;48.124;11.590;2022-10-17T10:58:59;96277.91;;;19.01;64.73
15405;BME280;7801;48.124;11.590;2022-10-17T11:02:09;96282.19;;;19.02;63.75
15405;BME280;7801;48.124;11.590;2022-10-17T11:04:47;96273.72;;;19.12;64.12
15405;BME280;7801;48.124;11.590;2022-10-17T11:07:22;96282.00;;;19.07;64.79
15405;BME280;7801;48.124;11.590;2022-10-17T11:09:59;96277.09;;;19.09;64.75
15405;BME280;7801;48.124;11.590;2022-10-17T11:12:32;96273.78;;;19.04;64.30
15405;BME280;7801;48.124;11.590;2022-10-17T11:15:27;96275.78;;;19.15;63.81
15405;BME280;7801;48.124;11.590;2022-10-17T11:18:13;96275.13;;;19.18;64.55
15405;BME280;7801;48.124;11.590;2022-10-17T11:21:22;96274.13;;;19.32;60.62
15405;BME280;7801;48.124;11.590;2022-10-17T11:24:18;96266.13;;;19.44;60.48
15405;BME280;7801;48.124;11.590;2022-10-17T11:26:56;96268.34;;;19.42;59.75
15405;BME280;7801;48.124;11.590;2022-10-17T11:29:27;96269.28;;;19.46;59.43
15405;BME280;7801;48.124;11.590;2022-10-17T11:31:58;96264.69;;;19.46;62.07
15405;BME280;7801;48.124;11.590;2022-10-17T11:34:28;96268.00;;;19.52;58.76
15405;BME280;7801;48.124;11.590;2022-10-17T11:37:04;96274.28;;;19.56;59.52
15405;BME280;7801;48.124;11.590;2022-10-17T11:39:53;96275.00;;;19.74;58.59
15405;BME280;7801;48.124;11.590;2022-10-17T11:42:41;96269.19;;;19.84;59.97
15405;BME280;7801;48.124;11.590;2022-10-17T11:45:16;96264.88;;;19.92;59.27
15405;BME280;7801;48.124;11.590;2022-10-17T11:47:49;96273.97;;;19.78;59.61
15405;BME280;7801;48.124;11.590;2022-10-17T11:50:42;96274.63;;;19.75;58.54
15405;BME280;7801;48.124;11.590;2022-10-17T11:55:42;96270.78;;;19.85;56.76
15405;BME280;7801;48.124;11.590;2022-10-17T12:17:00;96263.56;;;20.64;54.69
15405;BME280;7801;48.124;11.590;2022-10-17T12:19:29;96257.34;;;20.51;55.96
15405;BME280;7801;48.124;11.590;2022-10-17T12:22:23;96264.16;;;20.36;57.58
15405;BME280;7801;48.124;11.590;2022-10-17T12:25:01;96258.84;;;20.28;58.58
15405;BME280;7801;48.124;11.590;2022-10-17T12:27:39;96263.72;;;20.13;60.08
15405;BME280;7801;48.124;11.590;2022-10-17T12:30:26;96256.19;;;20.07;60.22
15405;BME280;7801;48.124;11.590;2022-10-17T12:33:17;96249.00;;;20.11;58.36
15405;BME280;7801;48.124;11.590;2022-10-17T12:35:50;96244.41;;;20.11;58.43
15405;BME280;7801;48.124;11.590;2022-10-17T12:51:17;96246.97;;;20.08;58.53
15405;BME280;7801;48.124;11.590;2022-10-17T12:56:37;96239.69;;;20.08;59.55
15405;BME280;7801;48.124;11.590;2022-10-17T12:59:29;96241.16;;;20.18;58.29
15405;BME280;7801;48.124;11.590;2022-10-17T13:01:58;96247.91;;;20.12;57.95
15405;BME280;7801;48.124;11.590;2022-10-17T13:04:30;96245.66;;;20.14;59.62
15405;BME280;7801;48.124;11.590;2022-10-17T13:06:58;96246.53;;;20.18;58.84
15405;BME280;7801;48.124;11.590;2022-10-17T13:09:34;96248.25;;;20.22;70.95
15405;BME280;7801;48.124;11.590;2022-10-17T13:12:05;96250.75;;;20.28;70.62
15405;BME280;7801;48.124;11.590;2022-10-17T13:14:38;96248.72;;;20.24;66.51
15405;BME280;7801;48.124;11.590;2022-10-17T13:17:26;96243.00;;;20.26;62.05
15405;BME280;7801;48.124;11.590;2022-10-17T13:19:55;96243.91;;;20.30;71.03
15405;BME280;7801;48.124;11.590;2022-10-17T13:22:30;96241.66;;;20.32;64.14
15405;BME280;7801;48.124;11.590;2022-10-17T13:25:14;96241.94;;;20.39;59.05
15405;BME280;7801;48.124;11.590;2022-10-17T13:27:45;96238.97;;;20.32;67.32
15405;BME280;7801;48.124;11.590;2022-10-17T13:30:29;96235.94;;;20.34;54.07
15405;BME280;7801;48.124;11.590;2022-10-17T13:32:56;96242.47;;;20.33;65.57
15405;BME280;7801;48.124;11.590;2022-10-17T13:35:34;96238.91;;;20.41;58.06
15405;BME280;7801;48.124;11.590;2022-10-17T13:38:01;96244.37;;;20.32;65.33
15405;BME280;7801;48.124;11.590;2022-10-17T13:40:39;96240.88;;;20.32;62.50
15405;BME280;7801;48.124;11.590;2022-10-17T13:43:14;96240.50;;;20.21;66.12
15405;BME280;7801;48.124;11.590;2022-10-17T13:45:49;96234.97;;;20.17;64.37
15405;BME280;7801;48.124;11.590;2022-10-17T13:48:34;96240.59;;;20.12;60.29
15405;BME280;7801;48.124;11.590;2022-10-17T13:51:03;96235.66;;;20.14;65.79
15405;BME280;7801;48.124;11.590;2022-10-17T13:53:37;96234.75;;;20.10;65.37
15405;BME280;7801;48.124;11.590;2022-10-17T13:58:48;96238.88;;;20.08;63.44
15405;BME280;7801;48.124;11.590;2022-10-17T14:01:14;96241.78;;;20.03;65.48
15405;BME280;7801;48.124;11.590;2022-10-17T14:03:41;96238.44;;;20.06;65.73
15405;BME280;7801;48.124;11.590;2022-10-17T14:06:16;96230.59;;;20.13;55.98
15405;BME280;7801;48.124;11.590;2022-10-17T14:11:28;96235.53;;;20.11;56.43
15405;BME280;7801;48.124;11.590;2022-10-17T14:13:55;96232.75;;;20.19;55.45
15405;BME280;7801;48.124;11.590;2022-10-17T14:16:23;96236.47;;;20.15;57.12
15405;BME280;7801;48.124;11.590;2022-10-17T14:18:50;96238.22;;;20.11;56.26
15405;BME280;7801;48.124;11.590;2022-10-17T14:21:23;96237.31;;;20.07;57.42
15405;BME280;7801;48.124;11.590;2022-10-17T14:24:10;96244.41;;;20.11;56.73
15405;BME280;7801;48.124;11.590;2022-10-17T14:29:50;96253.50;;;20.40;55.76
15405;BME280;7801;48.124;11.590;2022-10-17T14:32:17;96251.19;;;20.63;54.43
15405;BME280;7801;48.124;11.590;2022-10-17T14:34:45;96250.87;;;20.64;55.08
15405;BME280;7801;48.124;11.590;2022-10-17T14:37:29;96246.91;;;20.49;55.91
15405;BME280;7801;48.124;11.590;2022-10-17T14:40:00;96250.84;;;20.52;55.36
15405;BME280;7801;48.124;11.590;2022-10-17T14:42:28;96259.94;;;20.47;55.69
15405;BME280;7801;48.124;11.590;2022-10-17T14:45:05;96257.03;;;20.52;56.36
15405;BME280;7801;48.124;11.590;2022-10-17T14:47:34;96255.06;;;20.41;57.44
15405;BME280;7801;48.124;11.590;2022-10-17T14:50:28;96250.47;;;20.41;56.48
15405;BME280;7801;48.124;11.590;2022-10-17T14:55:54;96258.47;;;20.50;55.83
15405;BME280;7801;48.124;11.590;2022-10-17T14:58:28;96262.88;;;20.67;55.51
15405;BME280;7801;48.124;11.590;2022-10-17T15:00:57;96262.88;;;20.67;55.74
15405;BME280;7801;48.124;11.590;2022-10-17T15:03:23;96260.91;;;20.76;55.63
15405;BME280;7801;48.124;11.590;2022-10-17T15:05:51;96267.50;;;20.66;57.95
15405;BME280;7801;48.124;11.590;2022-10-17T15:08:20;96268.72;;;20.56;56.72
15405;BME280;7801;48.124;11.590;2022-10-17T15:10:48;96266.44;;;20.46;56.88
15405;BME280;7801;48.124;11.590;2022-10-17T15:13:15;96268.09;;;20.39;57.29
15405;BME280;7801;48.124;11.590;2022-10-17T15:15:42;96261.59;;;20.19;59.72
15405;BME280;7801;48.124;11.590;2022-10-17T15:18:11;96268.19;;;20.09;58.64
15405;BME280;7801;48.124;11.590;2022-10-17T15:20:39;96274.06;;;20.11;58.59